Time;durP1;ratioP1;P1;durP2;ratioP2;P2;SDS_P1;SDS_P2;PMS_P1;PMS_P2;Temp;Humidity;BMP_temperature;BMP_pressure;BME280_temperature;BME280_humidity;BME280_pressure;Samples;Min_cycle;Max_cycle;Signal;HPM_P1;HPM_P2
2022/06/28 00:00:05;;;;;;;10.30;4.40;;;15.30;99.90;;;;;;5024001;28;20199;-84
2022/06/28 00:02:31;;;;;;;7.10;3.97;;;15.20;1.00;;;;;;5032565;28;20183;-84
2022/06/28 00:04:57;;;;;;;11.20;4.43;;;15.20;1.00;;;;;;5021844;28;20519;-84
2022/06/28 00:07:22;;;;;;;6.13;4.07;;;15.20;1.00;;;;;;5027960;28;20271;-84
2022/06/28 00:09:48;;;;;;;12.10;3.77;;;15.10;1.00;;;;;;5027665;28;20208;-84
2022/06/28 00:12:13;;;;;;;8.10;4.47;;;15.10;1.00;;;;;;5023174;28;20219;-84
2022/06/28 00:17:23;;;;;;;5.87;4.00;;;15.10;99.90;;;;;;5015543;28;20237;-84
2022/06/28 00:19:48;;;;;;;6.73;4.23;;;15.00;99.90;;;;;;5023229;28;20970;-84
2022/06/28 00:22:14;;;;;;;9.37;4.83;;;15.00;99.90;;;;;;5027589;28;20222;-84
2022/06/28 00:24:40;;;;;;;10.67;5.00;;;15.00;99.90;;;;;;5021434;28;20564;-84
2022/06/28 00:27:05;;;;;;;5.83;4.37;;;15.00;99.90;;;;;;5028689;28;20266;-84
2022/06/28 00:29:31;;;;;;;7.47;4.83;;;14.90;99.90;;;;;;5028014;28;20659;-84
2022/06/28 00:31:56;;;;;;;7.30;4.60;;;14.90;99.90;;;;;;5027475;28;20282;-84
2022/06/28 00:34:22;;;;;;;6.20;4.30;;;14.90;99.90;;;;;;5030120;28;20224;-84
2022/06/28 00:36:48;;;;;;;9.13;4.63;;;14.90;99.90;;;;;;5032559;28;20553;-84
2022/06/28 00:39:14;;;;;;;6.80;4.37;;;14.80;99.90;;;;;;5031416;28;20213;-84
2022/06/28 00:41:40;;;;;;;6.00;4.43;;;14.80;99.90;;;;;;5023919;28;20258;-84
2022/06/28 00:44:05;;;;;;;11.77;5.40;;;14.80;1.00;;;;;;5032335;28;20450;-84
2022/06/28 00:46:33;;;;;;;5.40;4.13;;;14.80;1.00;;;;;;5031014;28;20438;-84
2022/06/28 00:49:00;;;;;;;4.90;4.10;;;14.70;1.00;;;;;;5051020;22;20468;-84
2022/06/28 00:51:25;;;;;;;8.93;4.57;;;14.70;1.00;;;;;;5032794;28;20483;-84
2022/06/28 00:53:51;;;;;;;7.63;4.73;;;14.70;1.00;;;;;;5013722;28;20433;-84
2022/06/28 00:56:17;;;;;;;7.73;4.67;;;14.60;1.00;;;;;;5010044;28;20206;-85
2022/06/28 00:58:42;;;;;;;9.40;4.83;;;14.60;1.00;;;;;;5007196;28;20186;-83
2022/06/28 01:01:08;;;;;;;6.43;3.97;;;14.60;1.00;;;;;;5000913;28;20208;-85
2022/06/28 01:03:34;;;;;;;8.90;4.40;;;14.60;1.00;;;;;;4996738;28;20215;-84
2022/06/28 01:05:59;;;;;;;6.77;4.50;;;14.60;1.00;;;;;;4991094;28;20203;-84
2022/06/28 01:08:25;;;;;;;8.67;4.80;;;14.60;1.00;;;;;;4989284;28;20187;-82
2022/06/28 01:10:51;;;;;;;4.80;4.27;;;14.50;1.00;;;;;;4986200;28;20215;-83
2022/06/28 01:13:17;;;;;;;5.70;3.73;;;14.50;1.00;;;;;;4987969;28;20511;-83
2022/06/28 01:15:43;;;;;;;7.30;4.10;;;14.50;1.00;;;;;;4996118;28;20426;-85
2022/06/28 01:18:10;;;;;;;6.13;4.37;;;14.50;1.00;;;;;;4995850;28;20190;-84
2022/06/28 01:20:36;;;;;;;7.27;4.63;;;14.50;1.00;;;;;;4995379;28;20212;-83
2022/06/28 01:23:02;;;;;;;8.53;3.90;;;14.40;1.00;;;;;;4994223;28;20444;-83
2022/06/28 01:25:27;;;;;;;8.03;4.07;;;14.40;14.10;;;;;;4990142;28;20676;-85
2022/06/28 01:27:55;;;;;;;4.70;4.20;;;14.40;27.10;;;;;;4991434;28;20311;-83
2022/06/28 01:30:21;;;;;;;5.73;4.00;;;14.40;33.60;;;;;;4986072;28;20239;-84
2022/06/28 01:32:47;;;;;;;9.13;4.20;;;14.40;54.90;;;;;;4990815;28;20471;-83
2022/06/28 01:35:14;;;;;;;4.50;3.40;;;14.30;75.60;;;;;;4996115;28;20423;-83
2022/06/28 01:37:39;;;;;;;6.43;4.53;;;14.30;81.30;;;;;;5000310;28;20422;-85
2022/06/28 01:40:07;;;;;;;6.40;4.00;;;14.30;97.00;;;;;;4995738;28;20440;-84
2022/06/28 01:42:32;;;;;;;6.20;4.43;;;14.30;99.90;;;;;;4996543;28;20449;-85
2022/06/28 01:44:59;;;;;;;6.43;4.70;;;14.30;98.20;;;;;;4999916;28;20970;-84
2022/06/28 01:47:28;;;;;;;8.83;3.83;;;14.30;98.90;;;;;;5010358;28;20443;-84
2022/06/28 01:49:54;;;;;;;5.60;4.10;;;14.30;99.90;;;;;;5008703;28;20530;-83
2022/06/28 01:52:21;;;;;;;5.00;4.50;;;14.30;99.90;;;;;;5001320;28;21065;-83
2022/06/28 01:54:47;;;;;;;6.63;4.90;;;14.20;99.90;;;;;;4987971;28;20423;-83
2022/06/28 01:57:14;;;;;;;12.87;4.27;;;14.20;99.90;;;;;;4993325;28;20840;-83
2022/06/28 01:59:40;;;;;;;8.00;4.10;;;14.20;99.90;;;;;;4993746;28;20212;-84
2022/06/28 02:02:06;;;;;;;5.97;4.30;;;14.20;99.90;;;;;;4988216;28;20477;-83
2022/06/28 02:04:32;;;;;;;4.63;4.00;;;14.20;99.90;;;;;;4992264;28;20675;-85
2022/06/28 02:06:58;;;;;;;6.67;4.70;;;14.20;99.90;;;;;;4998081;28;20423;-86
2022/06/28 02:09:25;;;;;;;10.03;4.83;;;14.20;99.90;;;;;;4999467;28;20470;-86
2022/06/28 02:11:51;;;;;;;6.20;4.10;;;14.20;99.90;;;;;;4993587;28;20494;-84
2022/06/28 02:14:17;;;;;;;5.60;4.20;;;14.20;99.90;;;;;;4989481;28;20427;-84
2022/06/28 02:16:43;;;;;;;9.20;4.30;;;14.20;99.90;;;;;;4996168;28;20780;-85
2022/06/28 02:19:09;;;;;;;5.90;5.00;;;14.20;99.90;;;;;;4988719;28;20429;-85
2022/06/28 02:21:39;;;;;;;8.43;4.90;;;14.20;99.90;;;;;;4987435;28;20497;-83
2022/06/28 02:24:06;;;;;;;7.30;4.90;;;14.20;99.90;;;;;;4992626;28;20189;-84
2022/06/28 02:26:32;;;;;;;5.23;4.30;;;14.20;99.90;;;;;;4992916;28;20569;-84
2022/06/28 02:28:59;;;;;;;5.17;4.30;;;14.20;99.90;;;;;;4996794;28;20509;-84
2022/06/28 02:31:25;;;;;;;6.37;4.73;;;14.20;99.90;;;;;;4990002;28;20483;-83
2022/06/28 02:33:51;;;;;;;9.30;5.07;;;14.20;99.90;;;;;;4989090;28;20415;-83
2022/06/28 02:41:46;;;;;;;5.03;4.53;;;14.20;99.90;;;;;;5000220;28;20449;-83
2022/06/28 02:44:12;;;;;;;7.90;4.13;;;14.10;99.90;;;;;;4999967;28;20427;-83
2022/06/28 02:46:37;;;;;;;7.43;4.17;;;14.10;99.90;;;;;;4986574;28;20478;-83
2022/06/28 02:49:03;;;;;;;8.30;4.30;;;14.10;99.90;;;;;;5002347;28;20179;-84
2022/06/28 02:51:29;;;;;;;5.90;4.50;;;14.00;99.90;;;;;;5003497;28;20463;-83
2022/06/28 02:53:55;;;;;;;8.33;4.40;;;14.00;99.90;;;;;;4999859;28;20427;-85
2022/06/28 02:56:21;;;;;;;8.43;4.50;;;14.00;99.90;;;;;;5000182;28;20191;-83
2022/06/28 02:58:47;;;;;;;9.50;5.00;;;13.90;99.90;;;;;;4999565;28;20518;-83
2022/06/28 03:01:13;;;;;;;10.00;5.37;;;13.90;99.90;;;;;;4999133;28;20454;-83
2022/06/28 03:03:39;;;;;;;9.30;4.33;;;13.90;99.90;;;;;;4992235;28;20569;-83
2022/06/28 03:06:05;;;;;;;12.63;4.43;;;13.80;99.90;;;;;;4990575;28;20427;-83
2022/06/28 03:08:31;;;;;;;8.20;4.80;;;13.80;99.90;;;;;;4988443;28;20427;-83
2022/06/28 03:10:57;;;;;;;9.77;4.50;;;13.80;99.90;;;;;;4996872;28;20447;-83
2022/06/28 03:13:22;;;;;;;12.67;4.40;;;13.70;99.90;;;;;;4986244;28;20219;-84
2022/06/28 03:15:48;;;;;;;10.87;3.87;;;13.70;99.90;;;;;;4992739;28;20189;-84
2022/06/28 03:18:13;;;;;;;12.40;4.93;;;13.70;99.90;;;;;;4992886;28;20628;-83
2022/06/28 03:20:39;;;;;;;11.97;5.07;;;13.70;99.90;;;;;;5000158;28;20698;-83
2022/06/28 03:23:05;;;;;;;13.80;4.97;;;13.60;99.90;;;;;;5000024;28;20719;-84
2022/06/28 03:25:31;;;;;;;9.10;4.80;;;13.60;99.90;;;;;;5001608;28;20200;-83
2022/06/28 03:27:57;;;;;;;16.43;4.73;;;13.60;99.90;;;;;;5000039;28;20191;-83
2022/06/28 03:30:22;;;;;;;13.40;5.40;;;13.60;99.90;;;;;;5001293;28;20537;-84
2022/06/28 03:32:48;;;;;;;6.87;4.83;;;13.60;99.90;;;;;;5000269;28;20218;-85
2022/06/28 03:35:13;;;;;;;10.10;4.40;;;13.60;99.90;;;;;;4994973;28;20184;-83
2022/06/28 03:37:39;;;;;;;8.40;4.43;;;13.60;99.90;;;;;;4991263;28;20219;-84
2022/06/28 03:40:05;;;;;;;6.93;4.10;;;13.60;99.90;;;;;;4991168;28;20268;-85
2022/06/28 03:42:31;;;;;;;13.77;4.83;;;13.60;99.90;;;;;;4987999;28;20195;-85
2022/06/28 03:44:56;;;;;;;12.27;4.40;;;13.60;99.90;;;;;;4996428;28;20446;-84
2022/06/28 03:47:22;;;;;;;7.10;4.50;;;13.60;99.90;;;;;;4983510;28;20204;-83
2022/06/28 03:49:48;;;;;;;7.20;4.60;;;13.60;99.90;;;;;;5002428;28;20246;-83
2022/06/28 03:52:14;;;;;;;11.80;4.23;;;13.60;99.90;;;;;;5001840;28;20207;-84
2022/06/28 03:54:40;;;;;;;10.70;4.43;;;13.70;99.90;;;;;;5000859;28;20183;-83
2022/06/28 03:57:05;;;;;;;10.60;4.20;;;13.70;99.90;;;;;;5000029;28;20514;-84
2022/06/28 03:59:31;;;;;;;6.70;4.40;;;13.70;99.90;;;;;;5000462;28;20207;-83
2022/06/28 04:01:57;;;;;;;12.40;4.37;;;13.80;99.90;;;;;;5000304;28;20187;-83
2022/06/28 04:04:22;;;;;;;5.50;4.77;;;13.80;99.90;;;;;;5001165;28;20191;-85
2022/06/28 04:06:48;;;;;;;9.60;4.20;;;13.80;99.90;;;;;;5003358;28;20246;-82
2022/06/28 04:09:13;;;;;;;8.20;4.07;;;13.90;99.90;;;;;;5003123;28;20372;-83
2022/06/28 04:11:39;;;;;;;8.97;4.20;;;13.90;99.90;;;;;;4995618;28;20242;-84
2022/06/28 04:14:04;;;;;;;5.30;4.80;;;14.00;99.90;;;;;;4990955;28;20194;-87
2022/06/28 04:16:32;;;;;;;6.63;4.40;;;14.00;75.20;;;;;;4990350;28;20187;-85
2022/06/28 04:18:57;;;;;;;8.90;3.97;;;14.10;28.40;;;;;;4995785;28;20185;-83
2022/06/28 04:21:23;;;;;;;7.20;4.17;;;14.20;1.00;;;;;;4991153;28;20453;-85
2022/06/28 04:23:49;;;;;;;10.30;5.47;;;14.20;1.00;;;;;;4987936;28;20189;-82
2022/06/28 04:26:15;;;;;;;5.80;4.70;;;14.30;1.00;;;;;;4995248;28;20263;-84
2022/06/28 04:28:40;;;;;;;7.27;4.90;;;14.30;1.00;;;;;;5004961;28;20555;-85
2022/06/28 04:31:06;;;;;;;7.70;4.30;;;14.40;1.00;;;;;;5003335;28;20450;-86
2022/06/28 04:33:33;;;;;;;6.90;4.10;;;14.50;1.00;;;;;;5004470;28;20314;-85
2022/06/28 04:35:58;;;;;;;8.63;4.70;;;14.60;1.00;;;;;;5004164;28;20431;-83
2022/06/28 04:38:24;;;;;;;9.70;5.10;;;14.60;1.00;;;;;;5003710;28;20430;-84
2022/06/28 04:40:49;;;;;;;7.87;4.30;;;14.70;99.90;;;;;;5000850;28;20259;-84
2022/06/28 04:43:15;;;;;;;6.70;3.63;;;14.80;99.90;;;;;;5000823;28;20209;-85
2022/06/28 04:45:40;;;;;;;8.67;4.00;;;14.80;99.90;;;;;;5006608;28;20565;-84
2022/06/28 04:48:06;;;;;;;10.83;4.07;;;14.90;99.70;;;;;;5014467;28;20423;-85
2022/06/28 04:50:32;;;;;;;12.63;4.23;;;15.00;1.00;;;;;;5006315;28;20223;-83
2022/06/28 04:52:58;;;;;;;8.70;3.80;;;15.10;1.00;;;;;;5001262;28;20240;-83
2022/06/28 04:55:23;;;;;;;7.20;3.70;;;15.20;99.90;;;;;;5001274;28;20507;-85
2022/06/28 04:57:49;;;;;;;12.63;4.20;;;15.20;99.90;;;;;;5001043;28;20264;-83
2022/06/28 05:00:16;;;;;;;9.40;3.53;;;15.30;1.10;;;;;;4996306;28;20238;-83
2022/06/28 05:02:42;;;;;;;6.17;3.63;;;15.40;1.00;;;;;;4992486;28;20194;-85
2022/06/28 05:05:09;;;;;;;7.33;3.73;;;15.50;99.90;;;;;;4995572;28;20808;-83
2022/06/28 05:07:35;;;;;;;10.80;4.47;;;15.50;72.40;;;;;;4990783;28;20439;-84
2022/06/28 05:10:02;;;;;;;7.93;4.40;;;15.50;99.90;;;;;;4988153;28;20462;-84
2022/06/28 05:12:28;;;;;;;8.87;4.43;;;15.50;1.00;;;;;;4994773;28;20544;-83
2022/06/28 05:14:54;;;;;;;10.80;4.27;;;15.60;99.90;;;;;;4994715;28;20431;-83
2022/06/28 05:17:19;;;;;;;10.97;4.27;;;15.60;1.00;;;;;;5001152;28;20182;-83
2022/06/28 05:19:45;;;;;;;7.80;4.37;;;15.70;99.90;;;;;;5001953;28;20304;-85
2022/06/28 05:22:11;;;;;;;8.17;4.13;;;15.80;99.90;;;;;;5003256;28;20225;-84
2022/06/28 05:24:37;;;;;;;6.13;4.57;;;15.90;32.00;;;;;;5002414;28;20430;-83
2022/06/28 05:27:03;;;;;;;7.50;3.50;;;16.00;1.00;;;;;;5001856;28;20190;-84
2022/06/28 05:29:29;;;;;;;8.43;3.63;;;16.10;1.00;;;;;;5000806;28;20581;-83
2022/06/28 05:31:55;;;;;;;9.90;5.03;;;16.10;99.90;;;;;;5001281;28;20486;-83
2022/06/28 05:34:20;;;;;;;6.70;3.93;;;16.20;1.00;;;;;;5000993;28;20191;-84
2022/06/28 05:36:46;;;;;;;6.57;3.90;;;16.30;99.90;;;;;;5001869;28;20186;-85
2022/06/28 05:39:12;;;;;;;5.17;4.13;;;16.50;40.20;;;;;;5001680;28;20719;-83
2022/06/28 05:41:38;;;;;;;21.03;4.20;;;16.60;1.00;;;;;;4995849;28;20211;-83
2022/06/28 05:44:04;;;;;;;6.33;3.93;;;16.70;99.90;;;;;;4990355;28;20462;-82
2022/06/28 05:46:30;;;;;;;5.80;3.83;;;16.80;99.90;;;;;;4991014;28;20438;-83
2022/06/28 05:48:56;;;;;;;8.93;5.10;;;16.90;99.90;;;;;;5011655;28;20916;-84
2022/06/28 05:51:21;;;;;;;7.50;4.13;;;17.10;99.90;;;;;;5003166;28;20283;-84
2022/06/28 05:53:47;;;;;;;8.73;4.03;;;17.20;99.90;;;;;;4989104;28;20469;-83
2022/06/28 05:56:13;;;;;;;6.33;3.73;;;17.30;1.00;;;;;;4994038;28;20196;-84
2022/06/28 05:58:38;;;;;;;7.93;3.80;;;17.40;1.00;;;;;;4988811;28;20250;-83
2022/06/28 06:01:04;;;;;;;7.33;4.13;;;17.50;1.00;;;;;;5001806;28;20744;-84
2022/06/28 06:03:30;;;;;;;6.30;3.67;;;17.60;1.00;;;;;;5001315;28;20192;-83
2022/06/28 06:05:56;;;;;;;6.20;3.50;;;17.70;1.00;;;;;;5001080;28;20222;-84
2022/06/28 06:08:21;;;;;;;3.77;2.90;;;17.80;1.00;;;;;;4997029;28;20436;-85
2022/06/28 06:10:47;;;;;;;7.00;2.97;;;18.00;99.90;;;;;;4993600;28;20213;-84
2022/06/28 06:13:13;;;;;;;6.13;2.60;;;18.30;99.90;;;;;;4987514;28;20492;-85
2022/06/28 06:15:39;;;;;;;3.00;2.30;;;18.90;1.00;;;;;;4995667;28;20210;-86
2022/06/28 06:18:05;;;;;;;6.13;2.70;;;20.20;99.90;;;;;;4989084;28;20431;-85
2022/06/28 06:20:30;;;;;;;6.40;2.10;;;23.50;1.00;;;;;;4991737;28;20207;-84
2022/06/28 06:22:56;;;;;;;4.03;2.00;;;28.30;99.90;;;;;;4997487;28;20191;-85
2022/06/28 06:25:21;;;;;;;4.80;1.90;;;32.30;99.90;;;;;;4997083;28;20195;-87
2022/06/28 06:27:47;;;;;;;2.70;1.70;;;35.60;99.90;;;;;;4998797;28;20208;-84
2022/06/28 06:30:13;;;;;;;4.43;1.20;;;38.30;99.90;;;;;;4997586;28;20211;-85
2022/06/28 06:32:39;;;;;;;4.20;1.50;;;40.40;99.90;;;;;;4994880;28;20302;-82
2022/06/28 06:35:05;;;;;;;7.03;1.87;;;41.80;99.90;;;;;;4994703;28;20446;-83
2022/06/28 06:37:31;;;;;;;3.60;2.10;;;43.60;99.90;;;;;;4994186;28;20640;-83
2022/06/28 06:39:56;;;;;;;4.20;1.67;;;45.20;99.90;;;;;;4996572;28;20497;-82
2022/06/28 06:42:22;;;;;;;5.43;1.77;;;46.40;99.90;;;;;;4993421;28;20337;-83
2022/06/28 06:44:47;;;;;;;4.47;1.57;;;47.60;99.90;;;;;;4994723;28;20584;-83
2022/06/28 06:47:13;;;;;;;3.23;1.70;;;48.70;99.90;;;;;;5000429;28;20174;-85
2022/06/28 06:49:51;;;;;;;3.47;1.77;;;49.50;99.90;;;;;;4996633;28;20566;-83
2022/06/28 06:52:16;;;;;;;7.53;2.07;;;50.30;99.90;;;;;;4992162;28;20190;-83
2022/06/28 06:54:42;;;;;;;3.70;2.00;;;50.80;99.90;;;;;;4993334;28;20414;-83
2022/06/28 06:57:08;;;;;;;4.57;2.03;;;51.20;99.90;;;;;;4991849;28;20233;-83
2022/06/28 06:59:33;;;;;;;4.03;1.70;;;51.20;99.90;;;;;;4991906;28;20562;-83
2022/06/28 07:01:59;;;;;;;3.40;1.60;;;51.70;99.90;;;;;;4981036;28;20290;-83
2022/06/28 07:04:24;;;;;;;5.70;1.77;;;51.70;99.90;;;;;;4987816;28;20190;-84
2022/06/28 07:06:50;;;;;;;5.20;1.87;;;51.50;96.20;;;;;;4980868;28;20233;-83
2022/06/28 07:09:16;;;;;;;3.87;1.30;;;50.80;92.00;;;;;;4981058;28;20195;-83
2022/06/28 07:11:41;;;;;;;2.97;1.50;;;50.80;88.40;;;;;;4988781;28;20193;-83
2022/06/28 07:14:07;;;;;;;5.20;1.67;;;49.80;80.00;;;;;;4976759;28;20194;-85
2022/06/28 07:16:33;;;;;;;9.60;1.67;;;49.10;74.50;;;;;;4986725;28;20690;-83
2022/06/28 07:18:58;;;;;;;3.37;1.80;;;48.50;68.10;;;;;;4977819;28;20202;-83
2022/06/28 07:21:24;;;;;;;7.23;1.67;;;49.40;69.30;;;;;;4984744;28;21529;-83
2022/06/28 07:23:50;;;;;;;6.57;1.37;;;50.10;70.00;;;;;;4979861;28;20609;-83
2022/06/28 07:26:18;;;;;;;4.70;1.40;;;50.20;67.60;;;;;;4990435;28;20429;-82
2022/06/28 07:28:43;;;;;;;3.43;1.50;;;50.10;63.90;;;;;;4990717;28;20187;-82
2022/06/28 07:31:09;;;;;;;3.07;1.60;;;49.50;59.80;;;;;;4986658;28;20446;-82
2022/06/28 07:33:34;;;;;;;2.57;1.60;;;49.00;57.30;;;;;;4990999;28;20566;-82
2022/06/28 07:36:00;;;;;;;2.73;1.30;;;49.00;55.90;;;;;;4988838;28;20191;-86
2022/06/28 07:38:29;;;;;;;2.43;1.10;;;48.70;54.30;;;;;;4990677;28;20186;-82
2022/06/28 07:40:56;;;;;;;7.40;1.53;;;49.80;56.20;;;;;;4987936;28;20214;-85
2022/06/28 07:43:22;;;;;;;4.90;1.53;;;49.60;54.70;;;;;;4992270;28;20484;-82
2022/06/28 07:45:47;;;;;;;4.10;1.37;;;50.60;55.80;;;;;;4991685;28;20983;-84
2022/06/28 07:48:13;;;;;;;3.97;1.50;;;51.30;56.20;;;;;;5005926;28;20183;-81
2022/06/28 07:53:23;;;;;;;4.07;1.57;;;51.70;50.90;;;;;;4983876;28;20618;-82
2022/06/28 07:55:48;;;;;;;3.47;1.23;;;52.20;51.00;;;;;;4981452;28;20183;-82
2022/06/28 07:58:14;;;;;;;7.63;1.43;;;52.70;50.50;;;;;;4983202;28;20681;-85
2022/06/28 08:00:39;;;;;;;3.37;1.23;;;52.40;47.50;;;;;;4988078;28;20238;-82
2022/06/28 08:03:05;;;;;;;3.73;1.37;;;52.40;46.90;;;;;;4988533;28;20223;-82
2022/06/28 08:05:31;;;;;;;6.37;1.57;;;51.80;44.30;;;;;;4980623;28;20264;-83
2022/06/28 08:07:56;;;;;;;3.70;1.33;;;51.50;41.70;;;;;;4988360;28;20726;-82
2022/06/28 08:10:22;;;;;;;2.53;1.07;;;51.40;40.30;;;;;;4987996;28;20214;-82
2022/06/28 08:12:47;;;;;;;2.70;1.10;;;51.80;41.20;;;;;;4986321;28;20210;-83
2022/06/28 08:15:13;;;;;;;3.83;1.27;;;52.00;40.80;;;;;;4988639;28;20652;-85
2022/06/28 08:17:39;;;;;;;3.40;1.50;;;51.90;39.20;;;;;;4985201;28;20746;-82
2022/06/28 08:20:05;;;;;;;3.13;1.20;;;52.00;38.50;;;;;;4982621;28;20661;-82
2022/06/28 08:22:30;;;;;;;2.53;1.30;;;52.00;38.10;;;;;;4992920;28;20298;-82
2022/06/28 08:24:56;;;;;;;1.83;1.00;;;52.00;37.50;;;;;;4993673;28;20949;-82
2022/06/28 08:27:22;;;;;;;4.07;1.37;;;51.30;47.00;;;;;;4997545;28;20267;-82
2022/06/28 08:29:47;;;;;;;2.67;1.20;;;51.40;34.40;;;;;;4993388;28;20229;-82
2022/06/28 08:32:16;;;;;;;2.80;1.10;;;51.90;36.60;;;;;;4994338;28;20186;-82
2022/06/28 08:34:41;;;;;;;5.23;1.40;;;52.20;36.20;;;;;;4994455;28;20190;-82
2022/06/28 08:37:07;;;;;;;3.43;1.10;;;52.50;35.40;;;;;;4993081;28;20430;-82
2022/06/28 08:39:32;;;;;;;2.60;1.13;;;52.60;35.30;;;;;;4992906;28;20256;-82
2022/06/28 08:42:03;;;;;;;2.87;1.27;;;52.50;34.10;;;;;;4990344;28;20300;-82
2022/06/28 08:44:34;;;;;;;2.33;1.13;;;51.60;31.10;;;;;;4999574;28;20182;-82
2022/06/28 08:47:01;;;;;;;6.27;1.30;;;51.60;31.00;;;;;;5002705;28;20442;-82
2022/06/28 08:49:41;;;;;;;4.53;1.80;;;51.90;31.30;;;;;;4995589;28;20958;-82
2022/06/28 08:52:09;;;;;;;2.20;0.97;;;51.70;30.40;;;;;;4995834;28;20911;-82
2022/06/28 08:54:35;;;;;;;2.73;1.13;;;51.40;28.90;;;;;;4998010;28;20426;-83
2022/06/28 08:57:01;;;;;;;2.67;1.13;;;51.60;29.70;;;;;;4998074;28;20831;-82
2022/06/28 08:59:26;;;;;;;3.93;1.60;;;51.40;29.30;;;;;;4998406;28;20449;-83
2022/06/28 09:01:52;;;;;;;3.00;1.50;;;51.00;28.70;;;;;;4998571;28;20210;-82
2022/06/28 09:04:18;;;;;;;1.37;0.93;;;50.00;27.10;;;;;;4999838;28;20175;-81
2022/06/28 09:06:43;;;;;;;3.40;1.50;;;49.20;26.20;;;;;;4999995;28;20564;-82
2022/06/28 09:09:09;;;;;;;5.40;1.23;;;49.20;26.60;;;;;;4998825;28;20179;-82
2022/06/28 09:11:42;;;;;;;3.37;1.30;;;49.50;28.10;;;;;;4997648;28;20197;-82
2022/06/28 09:14:29;;;;;;;3.57;1.20;;;50.10;29.10;;;;;;4990050;28;20183;-82
2022/06/28 09:16:56;;;;;;;3.97;1.37;;;50.40;29.40;;;;;;4998008;28;20480;-82
2022/06/28 09:19:33;;;;;;;2.20;1.80;;;50.20;28.90;;;;;;4997742;28;20500;-82
2022/06/28 09:22:00;;;;;;;7.00;1.20;;;49.80;27.80;;;;;;4996165;28;20492;-82
2022/06/28 09:24:26;;;;;;;3.57;1.40;;;49.40;26.70;;;;;;4998676;28;20423;-83
2022/06/28 09:27:01;;;;;;;5.00;1.70;;;49.40;26.60;;;;;;5000627;28;20418;-82
2022/06/28 09:29:26;;;;;;;3.60;1.10;;;49.30;26.00;;;;;;5000659;28;20449;-84
2022/06/28 09:31:52;;;;;;;4.60;1.00;;;48.00;24.60;;;;;;4998441;28;20458;-81
2022/06/28 09:34:17;;;;;;;3.83;1.23;;;48.00;25.00;;;;;;4990767;28;20295;-82
2022/06/28 09:36:57;;;;;;;4.00;1.30;;;47.70;25.20;;;;;;4994630;28;20233;-83
2022/06/28 09:39:27;;;;;;;2.40;1.00;;;48.20;26.00;;;;;;4986920;28;20199;-82
2022/06/28 09:41:54;;;;;;;3.87;1.00;;;48.40;26.10;;;;;;5000754;28;20458;-82
2022/06/28 09:44:29;;;;;;;2.23;1.00;;;48.50;26.60;;;;;;5005521;28;20418;-83
2022/06/28 09:46:57;;;;;;;2.40;1.10;;;48.70;26.50;;;;;;5005769;28;20425;-82
2022/06/28 09:49:32;;;;;;;1.83;0.87;;;48.00;24.40;;;;;;4994482;28;20457;-83
2022/06/28 09:51:59;;;;;;;3.87;1.50;;;48.00;24.50;;;;;;5000591;28;20440;-82
2022/06/28 09:54:31;;;;;;;2.87;1.27;;;46.80;22.90;;;;;;5001725;28;20423;-82
2022/06/28 09:56:58;;;;;;;5.37;1.73;;;46.40;22.10;;;;;;5002467;28;20957;-82
2022/06/28 09:59:26;;;;;;;3.40;1.00;;;45.50;21.80;;;;;;5000755;28;20435;-81
2022/06/28 10:01:56;;;;;;;6.23;1.23;;;45.40;22.10;;;;;;4998595;28;20461;-82
2022/06/28 10:04:23;;;;;;;3.83;1.00;;;45.10;22.10;;;;;;5001317;28;20423;-82
2022/06/28 10:06:49;;;;;;;4.20;1.10;;;45.30;23.40;;;;;;4996926;28;21003;-80
2022/06/28 10:09:18;;;;;;;2.80;1.07;;;45.70;24.20;;;;;;4997401;28;20468;-82
2022/06/28 10:17:34;;;;;;;2.77;1.10;;;46.50;25.40;;;;;;4992820;28;20413;-82
2022/06/28 10:20:03;;;;;;;5.03;1.50;;;45.70;22.70;;;;;;5001576;28;21084;-80
2022/06/28 10:22:29;;;;;;;4.40;1.20;;;45.30;22.50;;;;;;4995597;28;20546;-82
2022/06/28 10:24:58;;;;;;;5.43;1.63;;;45.20;22.60;;;;;;4993602;28;20467;-82
2022/06/28 10:27:26;;;;;;;6.10;1.70;;;44.90;22.00;;;;;;4992738;28;20184;-79
2022/06/28 10:30:00;;;;;;;3.50;1.33;;;44.30;20.50;;;;;;4997143;28;20475;-81
2022/06/28 10:32:46;;;;;;;3.40;1.20;;;44.20;21.10;;;;;;4999394;28;20431;-82
2022/06/28 10:35:35;;;;;;;4.30;1.77;;;44.60;22.50;;;;;;5003336;28;20455;-81
2022/06/28 10:38:09;;;;;;;6.57;1.67;;;44.70;21.90;;;;;;4999574;28;20427;-80
2022/06/28 10:40:45;;;;;;;6.50;1.37;;;44.00;20.80;;;;;;5000882;28;20912;-82
2022/06/28 10:43:11;;;;;;;7.20;1.70;;;43.90;20.80;;;;;;5000473;28;20504;-81
2022/06/28 10:46:09;;;;;;;2.80;1.00;;;43.40;20.40;;;;;;5004506;28;20426;-81
2022/06/28 10:48:49;;;;;;;4.60;1.30;;;43.00;19.80;;;;;;4994297;28;20184;-81
2022/06/28 10:51:16;;;;;;;2.67;1.00;;;42.90;19.70;;;;;;4995240;28;20489;-82
2022/06/28 10:54:00;;;;;;;2.60;1.03;;;43.20;20.50;;;;;;4985427;28;20430;-81
2022/06/28 10:56:27;;;;;;;2.10;1.10;;;43.70;20.80;;;;;;4983238;28;20931;-81
2022/06/28 10:59:19;;;;;;;5.53;1.30;;;43.50;20.70;;;;;;4996331;28;20433;-81
2022/06/28 11:01:51;;;;;;;2.37;1.00;;;42.80;18.90;;;;;;4986309;28;20474;-81
2022/06/28 11:04:19;;;;;;;2.03;0.90;;;43.10;18.60;;;;;;4988636;28;20462;-82
2022/06/28 11:06:47;;;;;;;3.93;1.13;;;43.10;19.50;;;;;;4989495;28;20482;-83
2022/06/28 11:09:35;;;;;;;3.23;0.90;;;42.30;17.00;;;;;;4983702;28;20423;-81
2022/06/28 11:12:05;;;;;;;3.30;1.33;;;41.70;17.20;;;;;;4994436;28;20509;-81
2022/06/28 11:14:34;;;;;;;3.53;1.00;;;41.40;16.60;;;;;;4998551;28;20439;-81
2022/06/28 11:17:00;;;;;;;3.37;1.00;;;41.90;17.50;;;;;;4985508;28;20434;-81
2022/06/28 11:19:26;;;;;;;2.90;1.10;;;42.60;19.30;;;;;;4997241;28;20447;-83
2022/06/28 11:21:56;;;;;;;4.67;0.90;;;42.90;19.40;;;;;;4981799;28;20456;-81
2022/06/28 11:24:23;;;;;;;2.80;1.43;;;43.30;20.00;;;;;;4988671;28;20511;-82
2022/06/28 11:29:33;;;;;;;3.00;1.20;;;42.90;19.80;;;;;;4998391;28;20442;-81
2022/06/28 11:31:59;;;;;;;2.70;0.97;;;41.80;17.60;;;;;;4992142;28;20428;-81
2022/06/28 11:34:25;;;;;;;3.17;1.07;;;41.50;16.40;;;;;;4986377;28;20283;-82
2022/06/28 11:36:55;;;;;;;2.07;0.97;;;41.50;16.90;;;;;;4985819;28;20270;-83
2022/06/28 11:39:23;;;;;;;2.77;0.90;;;41.80;17.70;;;;;;4992538;28;20471;-83
2022/06/28 11:41:53;;;;;;;1.80;0.80;;;42.10;18.60;;;;;;4992200;28;20882;-81
2022/06/28 11:44:20;;;;;;;3.43;1.30;;;41.10;16.00;;;;;;5003658;28;20420;-81
2022/06/28 11:46:48;;;;;;;2.20;0.90;;;41.20;16.40;;;;;;5000845;28;20425;-81
2022/06/28 11:49:24;;;;;;;3.53;1.00;;;41.50;16.50;;;;;;4997384;28;20430;-83
2022/06/28 11:51:50;;;;;;;3.00;0.80;;;41.90;17.40;;;;;;4989940;28;20427;-82
2022/06/28 11:54:16;;;;;;;3.80;1.07;;;42.10;17.20;;;;;;4988653;28;20431;-81
2022/06/28 11:56:46;;;;;;;3.50;1.30;;;42.10;17.60;;;;;;4990661;28;20187;-81
2022/06/28 11:59:12;;;;;;;2.00;0.80;;;41.60;16.80;;;;;;4991109;28;20430;-81
2022/06/28 12:01:39;;;;;;;4.40;1.27;;;41.90;17.10;;;;;;4997360;28;20542;-81
2022/06/28 12:04:06;;;;;;;2.60;1.00;;;41.90;17.50;;;;;;4997782;28;20423;-81
2022/06/28 12:06:33;;;;;;;2.10;0.90;;;41.50;17.20;;;;;;4997225;28;20442;-80
2022/06/28 12:09:04;;;;;;;3.53;1.20;;;40.40;14.20;;;;;;4998075;28;20419;-84
2022/06/28 12:11:43;;;;;;;4.27;1.23;;;40.40;16.00;;;;;;4996871;28;20464;-81
2022/06/28 12:14:18;;;;;;;1.63;0.70;;;40.80;16.90;;;;;;4998164;28;20423;-82
2022/06/28 12:16:59;;;;;;;1.53;0.93;;;40.70;16.20;;;;;;4995918;28;20417;-81
2022/06/28 12:19:33;;;;;;;3.57;1.17;;;39.90;15.30;;;;;;4996485;28;20453;-82
2022/06/28 12:22:07;;;;;;;2.53;1.00;;;39.50;15.30;;;;;;4995861;28;20525;-82
2022/06/28 12:24:46;;;;;;;2.67;0.93;;;39.80;15.80;;;;;;4996777;28;20488;-81
2022/06/28 12:27:14;;;;;;;3.67;0.97;;;39.10;15.20;;;;;;4995951;28;20434;-81
2022/06/28 12:29:39;;;;;;;2.30;0.93;;;39.50;16.10;;;;;;4997534;28;20461;-81
2022/06/28 12:32:05;;;;;;;4.30;1.23;;;39.30;16.00;;;;;;4999958;28;20427;-82
2022/06/28 12:34:31;;;;;;;1.83;0.93;;;38.80;25.00;;;;;;5000800;28;20192;-81
2022/06/28 12:36:57;;;;;;;2.57;1.10;;;39.00;15.70;;;;;;5000478;28;20191;-81
2022/06/28 12:39:22;;;;;;;4.10;0.93;;;39.10;16.80;;;;;;5000660;28;20680;-81
2022/06/28 12:41:48;;;;;;;1.77;0.93;;;39.40;17.70;;;;;;5001723;28;20209;-82
2022/06/28 12:44:14;;;;;;;2.07;0.80;;;38.20;14.90;;;;;;5012212;28;20244;-81
2022/06/28 12:46:41;;;;;;;3.10;0.80;;;37.60;15.20;;;;;;5002233;28;20986;-82
2022/06/28 12:49:06;;;;;;;2.47;0.80;;;37.50;15.30;;;;;;4998368;28;20427;-82
2022/06/28 12:51:32;;;;;;;2.67;0.80;;;37.20;15.50;;;;;;4998283;28;20954;-82
2022/06/28 12:53:57;;;;;;;2.53;0.90;;;36.80;15.10;;;;;;5000562;28;20192;-82
2022/06/28 12:56:23;;;;;;;3.97;0.90;;;37.10;15.90;;;;;;5002363;28;20195;-82
2022/06/28 12:58:49;;;;;;;2.83;0.93;;;37.70;17.40;;;;;;5003099;28;20226;-82
2022/06/28 13:01:15;;;;;;;2.70;1.00;;;38.20;18.70;;;;;;5006359;28;20196;-82
2022/06/28 13:03:41;;;;;;;3.27;1.23;;;38.60;20.00;;;;;;5007559;28;20211;-84
2022/06/28 13:06:09;;;;;;;5.20;1.30;;;38.30;19.20;;;;;;5006985;28;20514;-82